createdAt,value
2022-08-09T00:00:04.442Z,45210.38
2022-08-09T00:02:36.815Z,45218.38
2022-08-09T00:06:19.115Z,45210.38
2022-08-09T00:07:56.396Z,45218.38
2022-08-09T00:10:27.851Z,45226.38
2022-08-09T00:12:54.522Z,45222.38
2022-08-09T00:15:35.550Z,45218.38
2022-08-09T00:18:11.294Z,45222.38
2022-08-09T00:20:42.374Z,45230.38
2022-08-09T00:23:55.642Z,45232.38
2022-08-09T00:26:06.957Z,45230.38
2022-08-09T00:28:34.978Z,45226.38
2022-08-09T00:31:50.440Z,45238.38
2022-08-09T00:33:50.900Z,45222.38
2022-08-09T00:36:18.619Z,45224.38
2022-08-09T00:38:45.201Z,45230.38
2022-08-09T00:41:13.348Z,45230.38
2022-08-09T00:44:27.112Z,45222.38
2022-08-09T00:46:57.830Z,45238.38
2022-08-09T00:49:33.057Z,45228.38
2022-08-09T00:52:02.018Z,45226.38
2022-08-09T00:54:35.945Z,45230.38
2022-08-09T00:57:08.770Z,45218.38
2022-08-09T00:59:41.471Z,45222.38
2022-08-09T01:02:19.296Z,45240.34
2022-08-09T01:05:05.386Z,45234.38
2022-08-09T01:08:00.008Z,45234.38
2022-08-09T01:10:43.452Z,45236.38
2022-08-09T01:13:31.058Z,45240.34
2022-08-09T01:16:11.349Z,45244.34
2022-08-09T01:18:42.941Z,45226.38
2022-08-09T01:21:44.686Z,45230.38
2022-08-09T01:24:50.383Z,45230.38
2022-08-09T01:27:23.861Z,45232.38
2022-08-09T01:30:04.411Z,45230.38
2022-08-09T01:32:45.436Z,45240.34
2022-08-09T01:35:37.967Z,45226.38
2022-08-09T01:38:15.016Z,45244.34
2022-08-09T01:40:52.759Z,45234.38
2022-08-09T01:43:31.959Z,45222.38
2022-08-09T01:46:10.566Z,45230.38
2022-08-09T01:48:47.021Z,45250.34
2022-08-09T01:51:22.669Z,45218.38
2022-08-09T01:53:53.694Z,45240.34
2022-08-09T01:56:22.485Z,45238.38
2022-08-09T01:58:51.552Z,45218.38
2022-08-09T02:01:20.023Z,45240.34
2022-08-09T02:03:59.786Z,45224.38
2022-08-09T02:06:54.365Z,45242.34
2022-08-09T02:09:42.347Z,45246.34
2022-08-09T02:12:13.434Z,45238.38
2022-08-09T02:14:51.771Z,45254.34
2022-08-09T02:18:00.684Z,45232.38
2022-08-09T02:20:11.542Z,45238.38
2022-08-09T02:22:49.274Z,45254.34
2022-08-09T02:25:17.861Z,45250.34
2022-08-09T02:28:00.591Z,45234.38
2022-08-09T02:30:35.562Z,45246.34
2022-08-09T02:33:03.048Z,45242.34
2022-08-09T02:36:01.823Z,45242.34
2022-08-09T02:38:31.183Z,45234.38
2022-08-09T02:41:06.268Z,45230.38
2022-08-09T02:43:47.789Z,45244.34
2022-08-09T02:46:24.269Z,45236.38
2022-08-09T02:48:52.777Z,45234.38
2022-08-09T02:51:23.156Z,45254.34
2022-08-09T02:54:01.154Z,45256.34
2022-08-09T02:56:31.604Z,45270.34
2022-08-09T02:59:01.640Z,45242.34
2022-08-09T03:01:43.071Z,45248.34
2022-08-09T03:04:19.843Z,45238.38
2022-08-09T03:06:48.628Z,45238.38
2022-08-09T03:09:17.451Z,45254.34
2022-08-09T03:12:06.288Z,45244.34
2022-08-09T03:14:32.802Z,45242.34
2022-08-09T03:17:01.553Z,45254.34
2022-08-09T03:19:59.617Z,45246.34
2022-08-09T03:22:25.665Z,45246.34
2022-08-09T03:25:20.935Z,45242.34
2022-08-09T03:27:51.738Z,45254.34
2022-08-09T03:30:29.638Z,45244.34
2022-08-09T03:33:01.867Z,45254.34
2022-08-09T03:36:11.886Z,45266.34
2022-08-09T03:38:29.189Z,45246.34
2022-08-09T03:40:57.797Z,45254.34
2022-08-09T03:43:24.325Z,45250.34
2022-08-09T03:46:04.515Z,45268.34
2022-08-09T03:48:42.948Z,45258.34
2022-08-09T03:51:54.998Z,45270.34
2022-08-09T03:54:06.517Z,45262.34
2022-08-09T03:56:41.368Z,45258.34
2022-08-09T03:59:13.822Z,45274.34
2022-08-09T04:01:49.482Z,45262.34
2022-08-09T04:04:17.325Z,45272.34
2022-08-09T04:06:48.843Z,45264.34
2022-08-09T04:09:44.339Z,45266.34
2022-08-09T04:12:44.554Z,45274.34
2022-08-09T04:15:29.354Z,45266.34
2022-08-09T04:17:59.128Z,45268.34
2022-08-09T04:20:25.609Z,45270.34
2022-08-09T04:22:52.444Z,45270.34
2022-08-09T04:25:19.235Z,45268.34
2022-08-09T04:27:48.861Z,45272.34
2022-08-09T04:30:26.171Z,45272.34
2022-08-09T04:32:55.446Z,45266.34
2022-08-09T04:35:22.087Z,45266.34
2022-08-09T04:37:49.565Z,45284.31
2022-08-09T04:40:19.630Z,45274.34
2022-08-09T04:43:03.612Z,45262.34
2022-08-09T04:45:35.795Z,45294.31
2022-08-09T04:48:16.981Z,45270.34
2022-08-09T04:50:44.885Z,45282.31
2022-08-09T04:53:13.884Z,45286.31
2022-08-09T04:55:58.482Z,45260.34
2022-08-09T04:58:27.069Z,45256.34
2022-08-09T05:00:54.275Z,45264.34
2022-08-09T05:03:41.226Z,45282.31
2022-08-09T05:06:08.835Z,45282.31
2022-08-09T05:08:35.715Z,45272.34
2022-08-09T05:11:02.785Z,45284.31
2022-08-09T05:13:33.216Z,45266.34
2022-08-09T05:16:00.570Z,45264.34
2022-08-09T05:18:42.207Z,45262.34
2022-08-09T05:21:23.128Z,45274.34
2022-08-09T05:24:00.608Z,45260.34
2022-08-09T05:26:45.758Z,45256.34
2022-08-09T05:29:22.194Z,45264.34
2022-08-09T05:31:57.297Z,45274.34
2022-08-09T05:34:30.641Z,45250.34
2022-08-09T05:37:05.878Z,45262.34
2022-08-09T05:39:43.116Z,45252.34
2022-08-09T05:42:17.211Z,45266.34
2022-08-09T05:44:50.695Z,45254.34
2022-08-09T05:47:19.173Z,45260.34
2022-08-09T05:50:25.256Z,45272.34
2022-08-09T05:52:32.401Z,45262.34
2022-08-09T05:55:03.012Z,45286.31
2022-08-09T05:57:55.482Z,45266.34
2022-08-09T06:00:21.975Z,45258.34
2022-08-09T06:02:48.794Z,45248.34
2022-08-09T06:05:16.212Z,45266.34
2022-08-09T06:07:42.825Z,45262.34
2022-08-09T06:10:09.481Z,45262.34
2022-08-09T06:12:43.034Z,45268.34
2022-08-09T06:15:10.311Z,45260.34
2022-08-09T06:17:39.875Z,45254.34
2022-08-09T06:20:07.825Z,45248.34
2022-08-09T06:22:34.542Z,45246.34
2022-08-09T06:25:01.285Z,45258.34
2022-08-09T06:27:42.481Z,45234.38
2022-08-09T06:30:11.069Z,45234.38
2022-08-09T06:33:01.000Z,45250.34
2022-08-09T06:35:56.154Z,45230.38
2022-08-09T06:38:16.072Z,45270.34
2022-08-09T06:40:43.142Z,45248.34
2022-08-09T06:43:10.578Z,45262.34
2022-08-09T06:46:06.399Z,45246.34
2022-08-09T06:48:30.677Z,45254.34
2022-08-09T06:50:58.894Z,45222.38
2022-08-09T06:53:25.407Z,45246.34
2022-08-09T06:55:52.329Z,45242.34
2022-08-09T07:00:46.272Z,45236.38
2022-08-09T07:01:05.820Z,45226.38
2022-08-09T07:03:39.369Z,45232.38
2022-08-09T07:06:18.067Z,45226.38
2022-08-09T07:08:46.783Z,45226.38
2022-08-09T07:11:23.554Z,45228.38
2022-08-09T07:14:03.763Z,45222.38
2022-08-09T07:16:41.486Z,45228.38
2022-08-09T07:19:23.058Z,45228.38
2022-08-09T07:21:57.882Z,45218.38
2022-08-09T07:24:31.976Z,45222.38
2022-08-09T07:27:11.181Z,45234.38
2022-08-09T07:29:57.044Z,45224.38
2022-08-09T07:32:32.434Z,45236.38
2022-08-09T07:35:10.579Z,45226.38
2022-08-09T07:37:44.676Z,45250.34
2022-08-09T07:40:18.882Z,45222.38
2022-08-09T07:42:55.457Z,45214.38
2022-08-09T07:45:39.626Z,45222.38
2022-08-09T07:48:25.408Z,45212.38
2022-08-09T07:51:09.246Z,45218.38
2022-08-09T07:54:04.095Z,45210.38
2022-08-09T07:56:28.090Z,45222.38
2022-08-09T07:58:59.223Z,45218.38
2022-08-09T08:01:32.986Z,45210.38
2022-08-09T08:04:01.862Z,45210.38
2022-08-09T08:06:32.042Z,45216.38
2022-08-09T08:09:03.931Z,45212.38
2022-08-09T08:12:10.852Z,45210.38
2022-08-09T08:14:18.034Z,45214.38
2022-08-09T08:17:00.569Z,45220.38
2022-08-09T08:19:31.460Z,45198.41
2022-08-09T08:21:58.132Z,45208.38
2022-08-09T08:24:25.177Z,45214.38
2022-08-09T08:27:01.822Z,45214.38
2022-08-09T08:29:28.692Z,45196.41
2022-08-09T08:32:06.514Z,45202.38
2022-08-09T08:34:34.394Z,45206.38
2022-08-09T08:37:01.971Z,45194.41
2022-08-09T08:39:28.754Z,45206.38
2022-08-09T08:41:58.890Z,45186.41
2022-08-09T08:44:29.676Z,45206.38
2022-08-09T08:47:02.221Z,45204.38
2022-08-09T08:49:46.284Z,45188.41
2022-08-09T08:55:06.218Z,45196.41
2022-08-09T08:57:35.518Z,45218.38
2022-08-09T09:00:03.563Z,45198.41
2022-08-09T09:02:41.277Z,45180.41
2022-08-09T09:05:10.178Z,45170.41
2022-08-09T09:07:42.695Z,45192.41
2022-08-09T09:10:10.544Z,45178.41
2022-08-09T09:12:37.968Z,45202.38
2022-08-09T09:15:06.440Z,45178.41
2022-08-09T09:17:48.634Z,45168.41
2022-08-09T09:20:21.469Z,45166.44
2022-08-09T09:23:01.903Z,45172.41
2022-08-09T09:26:04.787Z,45160.44
2022-08-09T09:29:02.236Z,45178.41
2022-08-09T09:32:06.052Z,45162.44
2022-08-09T09:34:14.492Z,45158.44
2022-08-09T09:36:46.638Z,45166.44
2022-08-09T09:39:13.563Z,45162.44
2022-08-09T09:41:49.110Z,45166.44
2022-08-09T09:44:25.819Z,45154.44
2022-08-09T09:47:04.850Z,45162.44
2022-08-09T09:49:49.802Z,45156.44
2022-08-09T09:52:36.644Z,45154.44
2022-08-09T09:55:24.347Z,45154.44
2022-08-09T09:58:18.077Z,45154.44
2022-08-09T10:00:59.019Z,45142.44
2022-08-09T10:03:57.800Z,45162.44
2022-08-09T10:06:42.867Z,45142.44
2022-08-09T10:09:22.162Z,45150.44
2022-08-09T10:12:07.701Z,45136.44
2022-08-09T10:14:39.681Z,45142.44
2022-08-09T10:17:51.098Z,45142.44
2022-08-09T10:19:59.266Z,45160.44
2022-08-09T10:22:36.993Z,45136.44
2022-08-09T10:25:12.024Z,45140.44
2022-08-09T10:27:56.969Z,45150.44
2022-08-09T10:31:54.374Z,45138.44
2022-08-09T10:34:04.599Z,45138.44
2022-08-09T10:36:01.018Z,45130.44
2022-08-09T10:38:43.241Z,45138.44
2022-08-09T10:41:18.548Z,45114.47
2022-08-09T10:44:01.192Z,45134.44
2022-08-09T10:47:00.910Z,45126.47
2022-08-09T10:49:54.191Z,45126.47
2022-08-09T10:52:42.938Z,45124.47
2022-08-09T10:55:22.652Z,45128.47
2022-08-09T10:57:51.716Z,45132.44
2022-08-09T11:00:50.819Z,45110.47
2022-08-09T11:03:49.839Z,45120.47
2022-08-09T11:06:22.812Z,45096.47
2022-08-09T11:08:51.789Z,45120.47
2022-08-09T11:11:21.827Z,45114.47
2022-08-09T11:14:28.448Z,45102.47
2022-08-09T11:16:56.018Z,45104.47
2022-08-09T11:20:10.173Z,45100.47
2022-08-09T11:22:43.254Z,45090.50
2022-08-09T11:25:12.165Z,45080.50
2022-08-09T11:27:52.896Z,45078.50
2022-08-09T11:30:32.805Z,45086.50
2022-08-09T11:33:18.989Z,45054.53
2022-08-09T11:35:56.529Z,45050.53
2022-08-09T11:38:35.040Z,45058.53
2022-08-09T11:41:12.953Z,45048.53
2022-08-09T11:43:48.474Z,45042.53
2022-08-09T11:46:26.446Z,45028.53
2022-08-09T11:49:00.926Z,45022.56
2022-08-09T11:53:04.402Z,45012.56
2022-08-09T11:55:52.613Z,44998.56
2022-08-09T11:58:14.153Z,44998.56
2022-08-09T12:01:15.501Z,44994.56
2022-08-09T12:04:20.869Z,45000.56
2022-08-09T12:06:58.710Z,45006.56
2022-08-09T12:09:34.031Z,45006.56
2022-08-09T12:12:13.143Z,44994.56
2022-08-09T12:15:04.263Z,45002.56
2022-08-09T12:17:43.655Z,45002.56
2022-08-09T12:20:22.034Z,44998.56
2022-08-09T12:22:55.883Z,45014.56
2022-08-09T12:25:36.525Z,44984.59
2022-08-09T12:29:11.660Z,44994.56
2022-08-09T12:31:58.875Z,45004.56
2022-08-09T12:34:06.546Z,44990.59
2022-08-09T12:36:33.652Z,44978.59
2022-08-09T12:39:02.632Z,44990.59
2022-08-09T12:41:39.211Z,44994.56
2022-08-09T12:44:12.610Z,44982.59
2022-08-09T12:46:49.019Z,44978.59
2022-08-09T12:49:17.149Z,44980.59
2022-08-09T12:52:01.160Z,44958.59
2022-08-09T12:56:10.813Z,44970.59
2022-08-09T12:57:46.170Z,44958.59
2022-08-09T13:00:25.149Z,44954.63
2022-08-09T13:02:54.098Z,44952.63
2022-08-09T13:05:22.881Z,44954.63
2022-08-09T13:08:14.807Z,44950.63
2022-08-09T13:10:53.009Z,44946.63
2022-08-09T13:13:38.006Z,44924.63
2022-08-09T13:16:18.221Z,44930.63
2022-08-09T13:18:53.847Z,44922.66
2022-08-09T13:22:35.667Z,44914.66
2022-08-09T13:24:44.625Z,44914.66
2022-08-09T13:27:05.962Z,44902.66
2022-08-09T13:30:03.199Z,44902.66
2022-08-09T13:32:26.455Z,44910.66
2022-08-09T13:34:55.250Z,44898.66
2022-08-09T13:37:50.911Z,44906.66
2022-08-09T13:41:55.966Z,44882.69
2022-08-09T13:42:56.617Z,44888.69
2022-08-09T13:45:32.286Z,44886.69
2022-08-09T13:48:10.911Z,44878.69
2022-08-09T13:50:37.616Z,44870.69
2022-08-09T13:53:04.039Z,44878.69
2022-08-09T13:55:34.033Z,44878.69
2022-08-09T13:58:05.111Z,44878.69
2022-08-09T14:00:42.729Z,44874.69
2022-08-09T14:04:01.118Z,44876.69
2022-08-09T14:06:03.153Z,44882.69
2022-08-09T14:08:31.610Z,44874.69
2022-08-09T14:10:59.604Z,44876.69
2022-08-09T14:14:23.241Z,44882.69
2022-08-09T14:16:18.830Z,44882.69
2022-08-09T14:18:49.093Z,44882.69
2022-08-09T14:21:23.295Z,44878.69
2022-08-09T14:23:54.056Z,44874.69
2022-08-09T14:26:24.010Z,44872.69
2022-08-09T14:28:52.043Z,44876.69
2022-08-09T14:31:18.576Z,44876.69
2022-08-09T14:33:54.501Z,44870.69
2022-08-09T14:36:21.259Z,44886.69
2022-08-09T14:38:52.474Z,44882.69
2022-08-09T14:41:34.529Z,44882.69
2022-08-09T14:44:06.912Z,44886.69
2022-08-09T14:46:59.035Z,44878.69
2022-08-09T14:49:23.565Z,44874.69
2022-08-09T14:51:50.623Z,44886.69
2022-08-09T14:54:27.763Z,44882.69
2022-08-09T14:56:59.245Z,44882.69
2022-08-09T14:59:29.054Z,44896.66
2022-08-09T15:01:56.033Z,44894.66
2022-08-09T15:04:23.658Z,44900.66
2022-08-09T15:06:51.860Z,44902.66
2022-08-09T15:10:03.128Z,44900.66
2022-08-09T15:12:08.141Z,44910.66
2022-08-09T15:14:38.687Z,44898.66
2022-08-09T15:17:09.136Z,44902.66
2022-08-09T15:19:36.614Z,44914.66
2022-08-09T15:22:03.508Z,44910.66
2022-08-09T15:24:30.051Z,44920.66
2022-08-09T15:26:56.680Z,44918.66
2022-08-09T15:30:58.895Z,44926.63
2022-08-09T15:32:29.679Z,44918.66
2022-08-09T15:34:59.752Z,44944.63
2022-08-09T15:37:57.305Z,44942.63
2022-08-09T15:40:31.912Z,44950.63
2022-08-09T15:43:00.645Z,44946.63
2022-08-09T15:45:30.074Z,44944.63
2022-08-09T15:48:05.050Z,44948.63
2022-08-09T15:50:34.779Z,44954.63
2022-08-09T15:53:17.792Z,44958.59
2022-08-09T15:56:10.848Z,44958.59
2022-08-09T15:58:39.379Z,44966.59
2022-08-09T16:01:06.046Z,44964.59
2022-08-09T16:03:38.714Z,44986.59
2022-08-09T16:06:32.401Z,44990.59
2022-08-09T16:08:55.916Z,44990.59
2022-08-09T16:11:22.534Z,44994.56
2022-08-09T16:14:03.929Z,44986.59
2022-08-09T16:16:34.648Z,44988.59
2022-08-09T16:19:04.416Z,44986.59
2022-08-09T16:21:31.784Z,44992.56
2022-08-09T16:24:02.985Z,45008.56
2022-08-09T16:26:35.317Z,44990.59
2022-08-09T16:29:11.762Z,44994.56
2022-08-09T16:32:12.599Z,44992.56
2022-08-09T16:34:28.887Z,45004.56
2022-08-09T16:36:56.355Z,44994.56
2022-08-09T16:39:25.861Z,45008.56
2022-08-09T16:42:03.876Z,45006.56
2022-08-09T16:44:32.477Z,45012.56
2022-08-09T16:47:03.925Z,45014.56
2022-08-09T16:50:32.395Z,45010.56
2022-08-09T16:52:33.081Z,45014.56
2022-08-09T16:54:59.608Z,45010.56
2022-08-09T16:57:26.073Z,45032.53
2022-08-09T17:00:13.974Z,45022.56
2022-08-09T17:02:42.591Z,45022.56
2022-08-09T17:05:14.385Z,45018.56
2022-08-09T17:08:44.724Z,45028.53
2022-08-09T17:10:33.419Z,45032.53
2022-08-09T17:13:01.352Z,45014.56
2022-08-09T17:15:58.705Z,45022.56
2022-08-09T17:18:15.252Z,45030.53
2022-08-09T17:20:49.072Z,45030.53
2022-08-09T17:23:20.130Z,45026.53
2022-08-09T17:25:53.041Z,45026.53
2022-08-09T17:28:20.069Z,45042.53
2022-08-09T17:30:47.866Z,45016.56
2022-08-09T17:33:21.829Z,45028.53
2022-08-09T17:35:49.820Z,45026.53
2022-08-09T17:38:32.635Z,45038.53
2022-08-09T17:41:03.275Z,45028.53
2022-08-09T17:43:33.485Z,45034.53
2022-08-09T17:46:06.866Z,45042.53
2022-08-09T17:48:38.648Z,45038.53
2022-08-09T17:51:18.754Z,45030.53
2022-08-09T17:53:53.494Z,45034.53
2022-08-09T17:56:28.771Z,45034.53
2022-08-09T17:59:01.033Z,45044.53
2022-08-09T18:02:06.374Z,45030.53
2022-08-09T18:04:17.870Z,45042.53
2022-08-09T18:06:49.960Z,45050.53
2022-08-09T18:09:21.222Z,45054.53
2022-08-09T18:12:05.244Z,45042.53
2022-08-09T18:14:35.632Z,45042.53
2022-08-09T18:17:02.100Z,45042.53
2022-08-09T18:20:54.578Z,45052.53
2022-08-09T18:22:16.843Z,45054.53
2022-08-09T18:24:44.119Z,45046.53
2022-08-09T18:27:14.142Z,45048.53
2022-08-09T18:30:37.731Z,45038.53
2022-08-09T18:32:47.277Z,45046.53
2022-08-09T18:35:59.441Z,45040.53
2022-08-09T18:38:08.604Z,45048.53
2022-08-09T18:40:35.508Z,45056.53
2022-08-09T18:43:03.665Z,45066.50
2022-08-09T18:46:51.369Z,45066.50
2022-08-09T18:48:17.698Z,45068.50
2022-08-09T18:50:44.502Z,45058.53
2022-08-09T18:53:13.602Z,45064.50
2022-08-09T18:55:56.022Z,45048.53
2022-08-09T18:58:32.127Z,45062.50
2022-08-09T19:01:00.560Z,45062.50
2022-08-09T19:03:28.618Z,45058.53
2022-08-09T19:06:03.474Z,45058.53
2022-08-09T19:08:31.534Z,45066.50
2022-08-09T19:10:58.759Z,45070.50
2022-08-09T19:13:38.430Z,45070.50
2022-08-09T19:16:13.003Z,45074.50
2022-08-09T19:18:44.352Z,45062.50
2022-08-09T19:21:12.392Z,45062.50
2022-08-09T19:24:33.205Z,45062.50
2022-08-09T19:26:32.248Z,45074.50
2022-08-09T19:29:15.097Z,45082.50
2022-08-09T19:31:45.856Z,45078.50
2022-08-09T19:34:21.566Z,45068.50
2022-08-09T19:36:53.893Z,45090.50
2022-08-09T19:39:43.569Z,45072.50
2022-08-09T19:42:08.724Z,45080.50
2022-08-09T19:44:35.362Z,45090.50
2022-08-09T19:47:02.666Z,45082.50
2022-08-09T19:50:06.792Z,45070.50
2022-08-09T19:52:18.287Z,45076.50
2022-08-09T19:54:44.866Z,45070.50
2022-08-09T19:57:11.330Z,45078.50
2022-08-09T19:59:58.857Z,45094.50
2022-08-09T20:04:07.140Z,45090.50
2022-08-09T20:05:14.895Z,45098.47
2022-08-09T20:07:58.813Z,45092.50
2022-08-09T20:10:34.719Z,45076.50
2022-08-09T20:13:05.401Z,45096.47
2022-08-09T20:16:33.585Z,45104.47
2022-08-09T20:18:18.804Z,45090.50
2022-08-09T20:20:46.738Z,45094.50
2022-08-09T20:23:13.472Z,45086.50
2022-08-09T20:25:51.572Z,45086.50
2022-08-09T20:28:34.191Z,45098.47
2022-08-09T20:31:02.714Z,45092.50
2022-08-09T20:33:39.126Z,45104.47
2022-08-09T20:36:08.689Z,45102.47
2022-08-09T20:38:50.423Z,45106.47
2022-08-09T20:41:32.203Z,45102.47
2022-08-09T20:44:02.202Z,45094.50
2022-08-09T20:46:42.089Z,45106.47
2022-08-09T20:49:16.055Z,45094.50
2022-08-09T20:51:43.947Z,45114.47
2022-08-09T20:54:16.506Z,45110.47
2022-08-09T20:56:49.436Z,45100.47
2022-08-09T20:59:49.996Z,45112.47
2022-08-09T21:02:07.948Z,45116.47
2022-08-09T21:05:52.969Z,45106.47
2022-08-09T21:07:21.006Z,45110.47
2022-08-09T21:09:58.339Z,45110.47
2022-08-09T21:15:14.093Z,45118.47
2022-08-09T21:18:23.587Z,45114.47
2022-08-09T21:20:31.812Z,45110.47
2022-08-09T21:23:00.291Z,45116.47
2022-08-09T21:25:55.386Z,45122.47
2022-08-09T21:28:34.286Z,45114.47
2022-08-09T21:31:13.649Z,45130.44
2022-08-09T21:33:51.550Z,45126.47
2022-08-09T21:36:21.133Z,45134.44
2022-08-09T21:38:57.413Z,45114.47
2022-08-09T21:42:04.221Z,45128.47
2022-08-09T21:44:33.701Z,45130.44
2022-08-09T21:47:05.059Z,45138.44
2022-08-09T21:49:39.675Z,45126.47
2022-08-09T21:52:17.097Z,45144.44
2022-08-09T21:55:04.023Z,45128.47
2022-08-09T21:57:38.519Z,45118.47
2022-08-09T22:00:32.370Z,45126.47
2022-08-09T22:03:02.569Z,45122.47
2022-08-09T22:05:37.048Z,45142.44
2022-08-09T22:08:13.532Z,45132.44
2022-08-09T22:11:50.465Z,45142.44
2022-08-09T22:13:34.132Z,45144.44
2022-08-09T22:16:03.538Z,45138.44
2022-08-09T22:18:30.820Z,45158.44
2022-08-09T22:20:59.780Z,45142.44
2022-08-09T22:23:27.213Z,45136.44
2022-08-09T22:26:05.557Z,45138.44
2022-08-09T22:28:36.127Z,45142.44
2022-08-09T22:31:13.757Z,45138.44
2022-08-09T22:33:48.856Z,45140.44
2022-08-09T22:36:19.336Z,45138.44
2022-08-09T22:38:46.591Z,45146.44
2022-08-09T22:41:13.106Z,45154.44
2022-08-09T22:44:03.504Z,45130.44
2022-08-09T22:48:14.952Z,45134.44
2022-08-09T22:49:13.019Z,45134.44
2022-08-09T22:51:49.308Z,45150.44
2022-08-09T22:54:21.279Z,45140.44
2022-08-09T22:56:54.625Z,45156.44
2022-08-09T22:59:57.014Z,45142.44
2022-08-09T23:02:10.203Z,45142.44
2022-08-09T23:04:38.379Z,45150.44
2022-08-09T23:08:21.274Z,45156.44
2022-08-09T23:10:10.809Z,45150.44
2022-08-09T23:12:37.514Z,45150.44
2022-08-09T23:15:04.999Z,45146.44
2022-08-09T23:17:31.549Z,45150.44
2022-08-09T23:20:06.301Z,45162.44
2022-08-09T23:22:34.177Z,45168.41
2022-08-09T23:25:04.057Z,45162.44
2022-08-09T23:27:30.533Z,45154.44
2022-08-09T23:29:57.141Z,45170.41
2022-08-09T23:32:23.661Z,45162.44
2022-08-09T23:34:50.109Z,45160.44
2022-08-09T23:37:17.142Z,45170.41
2022-08-09T23:39:47.831Z,45154.44
2022-08-09T23:42:14.317Z,45170.41
2022-08-09T23:44:40.956Z,45154.44
2022-08-09T23:47:07.409Z,45170.41
2022-08-09T23:49:33.879Z,45166.44
2022-08-09T23:52:00.342Z,45170.41
2022-08-09T23:54:27.577Z,45174.41
2022-08-09T23:56:56.252Z,45172.41
2022-08-09T23:59:25.673Z,45170.41
